Time;durP1;ratioP1;P1;durP2;ratioP2;P2;SDS_P1;SDS_P2;PMS_P1;PMS_P2;Temp;Humidity;BMP_temperature;BMP_pressure;BME280_temperature;BME280_humidity;BME280_pressure;Samples;Min_cycle;Max_cycle;Signal;HPM_P1;HPM_P2
2022/12/18 14:17:00;;;;;;;18.42;9.27;;;-0.90;99.90;;;;;;5067528;28;20365;-61
2022/12/18 14:19:27;;;;;;;20.52;10.35;;;-0.90;99.90;;;;;;5067553;28;20028;-60
2022/12/18 14:21:52;;;;;;;17.58;9.85;;;-0.80;99.90;;;;;;5067967;28;20021;-61
2022/12/18 14:24:21;;;;;;;15.68;8.85;;;-0.70;99.90;;;;;;5068004;28;20013;-61
2022/12/18 14:26:48;;;;;;;16.90;9.13;;;-0.60;99.90;;;;;;5065947;28;20020;-62
2022/12/18 14:29:30;;;;;;;17.95;9.00;;;-0.60;99.90;;;;;;5067270;28;20065;-62
2022/12/18 14:32:18;;;;;;;15.00;8.77;;;-0.50;99.90;;;;;;5063337;28;20540;-60
2022/12/18 14:34:54;;;;;;;18.70;9.85;;;-0.40;99.90;;;;;;5067511;28;20017;-61
2022/12/18 14:37:27;;;;;;;16.85;9.73;;;-0.30;99.90;;;;;;5065951;28;20044;-60
2022/12/18 14:40:04;;;;;;;18.63;10.18;;;-0.30;99.90;;;;;;5066116;28;20405;-61
2022/12/18 14:42:30;;;;;;;19.45;9.98;;;-0.20;99.90;;;;;;5053227;28;20032;-61
2022/12/18 14:45:32;;;;;;;18.65;9.25;;;-0.20;99.90;;;;;;5049935;28;20017;-61
2022/12/18 14:48:06;;;;;;;19.40;9.65;;;-0.20;99.90;;;;;;5066095;28;20033;-60
2022/12/18 14:50:32;;;;;;;20.98;10.93;;;-0.10;99.90;;;;;;5066982;28;20400;-60
2022/12/18 14:52:57;;;;;;;18.50;9.57;;;-0.10;99.90;;;;;;5065920;28;20029;-60
2022/12/18 14:55:23;;;;;;;19.55;9.52;;;-0.10;99.90;;;;;;5066959;28;20044;-61
2022/12/18 14:57:54;;;;;;;15.63;9.90;;;0.00;99.90;;;;;;5067154;28;20147;-62
2022/12/18 15:00:22;;;;;;;18.70;9.85;;;0.00;99.90;;;;;;5067222;28;20051;-60
2022/12/18 15:02:56;;;;;;;19.70;10.13;;;0.00;99.90;;;;;;5067036;28;20028;-61
2022/12/18 15:05:28;;;;;;;21.40;10.00;;;0.00;99.90;;;;;;5065544;28;20039;-60
2022/12/18 15:07:57;;;;;;;18.23;10.18;;;0.00;99.90;;;;;;5066056;28;20059;-62
2022/12/18 15:10:24;;;;;;;20.05;10.38;;;0.00;99.90;;;;;;5066941;28;20374;-61
2022/12/18 15:12:55;;;;;;;17.95;9.18;;;0.00;99.90;;;;;;5051470;28;20040;-63
2022/12/18 15:15:33;;;;;;;;;;;0.00;99.90;;;;;;5046455;28;20124;-60
2022/12/18 15:18:11;;;;;;;17.15;9.25;;;0.00;99.90;;;;;;5046746;28;19908;-61
2022/12/18 15:21:12;;;;;;;19.02;10.55;;;0.00;99.90;;;;;;5046705;28;20040;-61
2022/12/18 15:23:46;;;;;;;20.43;9.70;;;0.00;99.90;;;;;;5033724;28;20099;-61
2022/12/18 15:26:14;;;;;;;16.90;9.43;;;0.00;99.90;;;;;;5045130;28;20324;-62
2022/12/18 15:28:59;;;;;;;20.63;10.27;;;0.00;99.90;;;;;;5032803;28;20010;-64
2022/12/18 15:31:34;;;;;;;20.42;10.55;;;0.00;99.90;;;;;;5033653;28;20022;-62
2022/12/18 15:34:00;;;;;;;20.38;10.27;;;0.00;99.90;;;;;;5033160;28;20105;-61
2022/12/18 15:36:27;;;;;;;20.33;10.73;;;0.00;99.90;;;;;;5032753;28;20104;-60
2022/12/18 15:38:55;;;;;;;17.73;10.15;;;0.00;99.90;;;;;;5033168;28;20028;-61
2022/12/18 15:41:21;;;;;;;20.23;10.30;;;0.00;99.90;;;;;;5033840;28;20478;-61
2022/12/18 15:43:49;;;;;;;21.35;11.30;;;0.00;99.90;;;;;;5032681;28;20033;-61
2022/12/18 15:46:26;;;;;;;20.02;11.43;;;0.10;99.90;;;;;;5032979;28;20017;-62
2022/12/18 15:48:56;;;;;;;23.13;11.90;;;0.00;99.90;;;;;;5032806;28;20044;-62
2022/12/18 15:51:27;;;;;;;25.48;12.48;;;0.00;99.90;;;;;;5032340;28;20026;-64
2022/12/18 15:53:55;;;;;;;23.45;12.80;;;0.00;99.90;;;;;;5032730;28;20112;-64
2022/12/18 15:59:12;;;;;;;21.75;12.07;;;0.00;99.90;;;;;;5040841;28;20032;-61
2022/12/18 16:01:38;;;;;;;18.90;10.93;;;0.00;99.90;;;;;;5052851;28;20075;-63
2022/12/18 16:04:03;;;;;;;22.75;12.52;;;0.00;99.90;;;;;;5050864;28;20372;-62
2022/12/18 16:06:29;;;;;;;25.33;13.00;;;0.00;99.90;;;;;;5052664;28;20546;-62
2022/12/18 16:08:55;;;;;;;27.98;13.18;;;0.00;99.90;;;;;;5052728;28;20409;-63
2022/12/18 16:11:38;;;;;;;29.77;14.45;;;0.10;99.90;;;;;;5050955;28;20025;-62
2022/12/18 16:14:27;;;;;;;24.13;11.82;;;0.10;99.90;;;;;;5052178;28;20044;-60
2022/12/18 16:16:56;;;;;;;29.90;13.40;;;0.10;99.90;;;;;;5041861;28;20048;-64
2022/12/18 16:19:22;;;;;;;23.20;13.00;;;0.10;99.90;;;;;;5052078;28;20021;-64
2022/12/18 16:21:50;;;;;;;25.33;12.10;;;0.10;99.90;;;;;;5052441;28;20025;-65
2022/12/18 16:24:18;;;;;;;22.55;11.63;;;0.20;99.90;;;;;;5051843;28;20416;-64
2022/12/18 16:26:44;;;;;;;24.75;11.90;;;0.20;99.90;;;;;;5052397;28;21068;-65
2022/12/18 16:29:10;;;;;;;27.02;12.45;;;0.20;99.90;;;;;;5052519;28;20480;-65
2022/12/18 16:31:37;;;;;;;24.23;10.63;;;0.30;99.90;;;;;;5051466;28;20029;-61
2022/12/18 16:34:23;;;;;;;23.83;11.82;;;0.30;99.90;;;;;;5050874;28;20017;-62
2022/12/18 16:36:50;;;;;;;25.33;11.63;;;0.30;99.90;;;;;;5052298;28;20534;-62
2022/12/18 16:39:16;;;;;;;24.02;11.95;;;0.30;99.90;;;;;;5050497;28;20048;-61
2022/12/18 16:41:42;;;;;;;24.08;11.80;;;0.30;99.90;;;;;;5052052;28;20028;-63
2022/12/18 16:44:08;;;;;;;24.20;10.95;;;0.30;99.90;;;;;;5051573;28;20021;-63
2022/12/18 16:46:34;;;;;;;24.40;12.40;;;0.30;99.90;;;;;;5051361;28;20025;-63
2022/12/18 16:49:00;;;;;;;23.13;11.18;;;0.30;99.90;;;;;;5051826;28;20090;-64
2022/12/18 16:51:26;;;;;;;22.05;11.18;;;0.30;99.90;;;;;;5050426;28;20025;-63
2022/12/18 16:53:53;;;;;;;28.30;12.35;;;0.30;99.90;;;;;;5047536;28;20033;-63
2022/12/18 16:56:19;;;;;;;24.42;11.27;;;0.30;99.90;;;;;;5051950;28;20086;-63
2022/12/18 16:58:50;;;;;;;26.73;12.27;;;0.30;99.90;;;;;;5050807;28;20013;-63
2022/12/18 17:01:16;;;;;;;22.40;11.52;;;0.30;99.90;;;;;;5051630;28;20017;-64
2022/12/18 17:03:42;;;;;;;23.33;11.13;;;0.30;99.90;;;;;;5051870;28;20032;-62
2022/12/18 17:06:07;;;;;;;24.45;11.80;;;0.30;99.90;;;;;;5051486;28;20017;-63
2022/12/18 17:08:33;;;;;;;26.00;12.32;;;0.30;99.90;;;;;;5051103;28;20478;-62
2022/12/18 17:11:08;;;;;;;25.15;12.40;;;0.30;99.90;;;;;;5051320;28;20472;-63
2022/12/18 17:13:34;;;;;;;24.85;13.00;;;0.40;99.90;;;;;;5051507;28;20017;-62
2022/12/18 17:16:03;;;;;;;24.40;11.73;;;0.30;99.90;;;;;;5051294;28;20048;-63
2022/12/18 17:18:29;;;;;;;26.73;12.52;;;0.30;99.90;;;;;;5051550;28;20056;-63
2022/12/18 17:21:00;;;;;;;30.75;13.93;;;0.30;99.90;;;;;;5050491;28;20052;-62
2022/12/18 17:23:27;;;;;;;29.00;13.18;;;0.30;99.90;;;;;;5051506;28;20124;-63
2022/12/18 17:25:57;;;;;;;24.60;13.40;;;0.30;99.90;;;;;;5050290;28;20021;-63
2022/12/18 17:28:24;;;;;;;22.38;10.95;;;0.30;99.90;;;;;;5050493;28;20063;-62
2022/12/18 17:30:51;;;;;;;30.50;14.05;;;0.30;99.90;;;;;;5051054;28;20032;-63
2022/12/18 17:33:17;;;;;;;27.83;13.65;;;0.30;99.90;;;;;;5046119;28;20017;-63
2022/12/18 17:35:43;;;;;;;25.52;11.77;;;0.30;99.90;;;;;;5050413;28;20571;-64
2022/12/18 17:38:09;;;;;;;23.52;11.80;;;0.30;99.90;;;;;;5050955;28;20021;-63
2022/12/18 17:40:35;;;;;;;23.67;12.32;;;0.30;99.90;;;;;;5050834;28;20389;-62
2022/12/18 17:43:00;;;;;;;28.60;13.48;;;0.30;99.90;;;;;;5048923;28;20052;-64
2022/12/18 17:45:26;;;;;;;26.80;14.13;;;0.30;99.90;;;;;;5051366;28;20145;-64
2022/12/18 17:47:52;;;;;;;27.67;14.20;;;0.30;99.90;;;;;;5050405;28;20036;-63
2022/12/18 17:50:17;;;;;;;26.38;12.90;;;0.30;99.90;;;;;;5045418;28;20029;-63
2022/12/18 17:52:43;;;;;;;30.63;13.15;;;0.30;99.90;;;;;;5051052;28;20033;-63
2022/12/18 17:55:09;;;;;;;25.65;12.65;;;0.30;99.90;;;;;;5050567;28;20096;-63
2022/12/18 17:57:35;;;;;;;30.33;13.23;;;0.30;99.90;;;;;;5050198;28;20478;-63
2022/12/18 18:00:01;;;;;;;23.70;12.43;;;0.30;99.90;;;;;;5050590;28;20315;-63
2022/12/18 18:02:27;;;;;;;24.77;13.80;;;0.40;99.90;;;;;;5050696;28;20463;-63
2022/12/18 18:04:53;;;;;;;30.40;13.13;;;0.30;99.90;;;;;;5049892;28;20093;-63
2022/12/18 18:07:18;;;;;;;28.83;12.77;;;0.30;99.90;;;;;;5045566;28;20108;-62
2022/12/18 18:09:44;;;;;;;28.30;14.23;;;0.30;99.90;;;;;;5050032;28;20018;-63
2022/12/18 18:14:54;;;;;;;31.20;14.98;;;0.30;99.90;;;;;;5050660;28;20036;-63
2022/12/18 18:17:19;;;;;;;32.10;14.85;;;0.30;99.90;;;;;;5050151;28;20029;-62
2022/12/18 18:19:45;;;;;;;28.52;13.93;;;0.30;99.90;;;;;;5051063;28;20047;-65
2022/12/18 18:22:10;;;;;;;30.23;13.85;;;0.30;99.90;;;;;;5049151;28;20033;-63
2022/12/18 18:24:36;;;;;;;29.27;14.55;;;0.30;99.90;;;;;;5050086;28;20021;-64
2022/12/18 18:27:01;;;;;;;27.63;13.48;;;0.30;99.90;;;;;;5050332;28;20477;-61
2022/12/18 18:29:31;;;;;;;29.63;14.73;;;0.30;99.90;;;;;;5048970;28;20111;-63
2022/12/18 18:31:56;;;;;;;26.35;14.18;;;0.30;99.90;;;;;;5049518;28;20535;-63
2022/12/18 18:34:25;;;;;;;28.27;15.13;;;0.30;99.90;;;;;;5050968;28;20029;-62
2022/12/18 18:36:50;;;;;;;30.63;16.88;;;0.30;99.90;;;;;;5049041;28;20543;-63
2022/12/18 18:39:16;;;;;;;32.65;16.23;;;0.30;99.90;;;;;;5049362;28;20033;-63
2022/12/18 18:41:42;;;;;;;31.98;15.70;;;0.30;99.90;;;;;;5050235;28;20025;-63
2022/12/18 18:44:08;;;;;;;28.13;14.60;;;0.30;99.90;;;;;;5043604;28;20030;-63
2022/12/18 18:46:34;;;;;;;26.50;14.05;;;0.30;99.90;;;;;;5037821;28;20021;-64
2022/12/18 18:48:59;;;;;;;28.83;15.00;;;0.30;99.90;;;;;;5050521;28;20192;-63
2022/12/18 18:51:25;;;;;;;29.50;14.48;;;0.30;99.90;;;;;;5050706;28;20017;-63
2022/12/18 18:53:52;;;;;;;28.48;15.77;;;0.30;99.90;;;;;;5048857;28;20021;-64
2022/12/18 18:56:20;;;;;;;32.97;15.48;;;0.30;99.90;;;;;;5050643;28;20420;-63
2022/12/18 18:58:46;;;;;;;26.33;14.45;;;0.30;99.90;;;;;;5050638;28;20013;-64
2022/12/18 19:01:15;;;;;;;32.63;15.15;;;0.30;99.90;;;;;;5049933;28;20027;-64
2022/12/18 19:03:41;;;;;;;28.88;14.18;;;0.30;99.90;;;;;;5054140;28;20020;-63
2022/12/18 19:06:08;;;;;;;30.58;14.38;;;0.40;99.90;;;;;;5053633;28;20016;-64
2022/12/18 19:08:36;;;;;;;32.78;15.80;;;0.40;99.90;;;;;;5054406;28;20048;-64
2022/12/18 19:11:03;;;;;;;25.77;13.68;;;0.40;99.90;;;;;;5053862;28;20070;-63
2022/12/18 19:13:32;;;;;;;33.15;15.10;;;0.40;99.90;;;;;;5052508;28;20032;-63
2022/12/18 19:16:06;;;;;;;34.22;15.82;;;0.40;99.90;;;;;;5053917;28;20053;-63
2022/12/18 19:18:32;;;;;;;30.83;15.32;;;0.40;99.90;;;;;;5054288;28;20509;-64
2022/12/18 19:21:03;;;;;;;26.83;13.82;;;0.40;99.90;;;;;;5044333;28;20029;-62
2022/12/18 19:23:30;;;;;;;31.88;14.73;;;0.40;99.90;;;;;;5034298;28;20032;-63
2022/12/18 19:26:00;;;;;;;29.70;13.73;;;0.40;99.90;;;;;;5034039;28;20021;-62
2022/12/18 19:28:27;;;;;;;26.48;13.70;;;0.40;99.90;;;;;;5033724;28;20022;-62
2022/12/18 19:31:00;;;;;;;27.98;13.90;;;0.50;99.90;;;;;;5033497;28;20052;-62
2022/12/18 19:33:28;;;;;;;32.30;16.02;;;0.50;99.90;;;;;;5033749;28;20028;-62
2022/12/18 19:35:54;;;;;;;28.20;14.55;;;0.50;99.90;;;;;;5031556;28;20033;-62
2022/12/18 19:38:19;;;;;;;27.77;14.63;;;0.50;99.90;;;;;;5033976;28;20021;-62
2022/12/18 19:40:45;;;;;;;30.70;15.25;;;0.50;99.90;;;;;;5034034;28;20021;-62
2022/12/18 19:43:11;;;;;;;31.85;15.43;;;0.50;99.90;;;;;;5033171;28;20026;-62
2022/12/18 19:45:37;;;;;;;32.80;14.93;;;0.50;99.90;;;;;;5033893;28;20378;-62
2022/12/18 19:48:04;;;;;;;30.77;14.93;;;0.50;99.90;;;;;;5033256;28;20018;-61
2022/12/18 19:50:30;;;;;;;31.67;15.43;;;0.50;99.90;;;;;;5033001;28;20033;-62
2022/12/18 19:52:56;;;;;;;28.33;14.43;;;0.60;99.90;;;;;;5033120;28;20096;-62
2022/12/18 19:55:22;;;;;;;30.63;15.95;;;0.60;99.90;;;;;;5032633;28;20160;-60
2022/12/18 19:57:48;;;;;;;31.17;13.77;;;0.60;99.90;;;;;;5033516;28;20049;-62
2022/12/18 20:00:13;;;;;;;29.75;15.75;;;0.60;99.90;;;;;;5033105;28;20064;-63
2022/12/18 20:02:39;;;;;;;28.67;14.88;;;0.60;99.90;;;;;;5032390;28;20017;-62
2022/12/18 20:05:11;;;;;;;31.65;15.45;;;0.60;99.90;;;;;;5032858;28;20425;-62
2022/12/18 20:07:37;;;;;;;;;;;0.60;99.90;;;;;;5032219;28;20108;-62
2022/12/18 20:10:05;;;;;;;29.85;15.18;;;0.60;99.90;;;;;;5032167;28;20110;-62
2022/12/18 20:12:31;;;;;;;30.58;14.88;;;0.60;99.90;;;;;;5032812;28;20398;-62
2022/12/18 20:14:57;;;;;;;30.65;15.60;;;0.60;99.90;;;;;;5032616;28;20018;-61
2022/12/18 20:17:23;;;;;;;33.40;15.75;;;0.60;99.90;;;;;;5032809;28;20029;-63
2022/12/18 20:19:48;;;;;;;33.17;15.48;;;0.60;99.90;;;;;;5033121;28;20540;-62
2022/12/18 20:22:14;;;;;;;37.78;17.15;;;0.60;99.90;;;;;;5032588;28;20014;-63
